Owls Head, ME (04854)

1:18 PM EST on February 14, 2016 (GMT -0500)
Upper Park Street | | Change Station
CLOSE
Current Station
Personal Weather Station
Location: Rockland, ME
Elevation: 79 ft
Nearby Weather Stations

Elev 79 ft 44.10 °N, 69.13 °W | Updated 12 seconds ago

Clear
Clear
6.3 °F
Feels Like -15 °F
N
23.8
Wind Variable Wind from WNW
Gusts 26.0 mph

Today
High -- | Low -- °F
--% Chance of Precip.
Yesterday
High -- | Low -- °F
Precip. -- in
Pressure 30.23 in
Visibility 8.0 miles
Clouds Clear
Windchill -15 °F
Dew Point -6 °F
Humidity 42%
Rainfall 0.00 in
Snow Depth Not available.
6:37 AM 5:03 PM
Waxing Crescent, 44% visible
METAR KRKD 141756Z AUTO 30013G18KT 8SM CLR M14/M26 A3022 RMK AO2 SLP237 6//// T11441256 11144 21206 58006 FZRANO
Pressure 30.23 in
Visibility 8.0 miles
Clouds Clear
Windchill -15 °F
Dew Point -6 °F
Humidity 42%
Rainfall 0.00 in
Snow Depth Not available.
6:37 AM 5:03 PM
Waxing Crescent, 44% visible
METAR KRKD 141756Z AUTO 30013G18KT 8SM CLR M14/M26 A3022 RMK AO2 SLP237 6//// T11441256 11144 21206 58006 FZRANO

10-Day Weather Forecast

Almanac

Astronomy

Feb. 14, 2016 Rise Set
Actual Time
Civil Twilight
Nautical Twilight
Astronomical Twilight
Moon
Length of Visible Light
Length of Day
Tomorrow will be .
, % of the Moon is Illuminated

Today's Extremes

State Highs State Lows

Community

WunderPhotos

Upload Photos

1,892,867 photos uploaded!

WunderBlog® & News

Nearby

Air Quality

  Air Quality AQ Index Pollutant
Not available.

Snow Depth

Station Depth Elevation

Earthquake Activity

City Distance Mag. Time & Date
Minimum magnitude displayed is 2.5.

Coastal Water Temperatures

Place Temperature

Stations

Nearby Weather Stations

Station Location Temp. Windchill Dew Point Humidity Wind Precip. Elev Updated Type
                   

Watches & Warnings

There are currently no watches in effect.